Time;durP1;ratioP1;P1;durP2;ratioP2;P2;SDS_P1;SDS_P2;PMS_P1;PMS_P2;Temp;Humidity;BMP_temperature;BMP_pressure;BME280_temperature;BME280_humidity;BME280_pressure;Samples;Min_cycle;Max_cycle;Signal;HPM_P1;HPM_P2
2021/09/14 00:01:52;;;;;;;16.30;15.20;;;;;;;;;;5109096;27;24757;-58
2021/09/14 00:04:17;;;;;;;15.80;14.70;;;;;;;;;;5121394;27;24982;-58
2021/09/14 00:06:42;;;;;;;15.63;14.52;;;;;;;;;;5126874;27;24577;-58
2021/09/14 00:09:08;;;;;;;16.42;15.23;;;;;;;;;;5121677;27;24449;-58
2021/09/14 00:11:34;;;;;;;15.83;14.63;;;;;;;;;;5127831;27;24799;-58
2021/09/14 00:13:59;;;;;;;16.33;15.02;;;;;;;;;;5117248;27;24504;-58
2021/09/14 00:16:24;;;;;;;16.40;15.10;;;;;;;;;;5127548;27;24800;-58
2021/09/14 00:18:51;;;;;;;16.10;15.00;;;;;;;;;;5126452;27;24425;-58
2021/09/14 00:21:16;;;;;;;16.40;15.20;;;;;;;;;;5112203;28;24406;-59
2021/09/14 00:23:41;;;;;;;14.90;13.90;;;;;;;;;;5124357;28;24408;-58
2021/09/14 00:26:06;;;;;;;15.63;14.52;;;;;;;;;;5107115;28;24481;-61
2021/09/14 00:28:31;;;;;;;13.40;12.60;;;;;;;;;;5106845;28;24464;-58
2021/09/14 00:30:57;;;;;;;14.93;13.93;;;;;;;;;;5106896;28;24390;-61
2021/09/14 00:33:22;;;;;;;15.35;14.23;;;;;;;;;;5107379;28;24533;-59
2021/09/14 00:35:47;;;;;;;14.45;13.50;;;;;;;;;;5126915;28;24447;-59
2021/09/14 00:38:12;;;;;;;12.80;12.00;;;;;;;;;;5126969;28;24437;-59
2021/09/14 00:40:37;;;;;;;12.77;11.98;;;;;;;;;;5126356;28;24402;-59
2021/09/14 00:43:03;;;;;;;13.73;12.80;;;;;;;;;;5108786;28;24487;-59
2021/09/14 00:45:28;;;;;;;13.02;12.20;;;;;;;;;;5111501;28;24405;-59
2021/09/14 00:47:53;;;;;;;14.43;13.43;;;;;;;;;;5127158;28;24496;-59
2021/09/14 00:50:18;;;;;;;13.70;12.75;;;;;;;;;;5126772;28;24405;-59
2021/09/14 00:52:43;;;;;;;13.47;12.57;;;;;;;;;;5124353;28;24574;-59
2021/09/14 00:55:08;;;;;;;13.40;12.40;;;;;;;;;;5117452;28;24413;-58
2021/09/14 00:57:34;;;;;;;13.60;12.70;;;;;;;;;;5125313;28;24531;-59
2021/09/14 00:59:59;;;;;;;14.97;13.97;;;;;;;;;;5121948;28;24508;-59
2021/09/14 01:02:24;;;;;;;15.95;14.85;;;;;;;;;;5111560;28;24837;-59
2021/09/14 01:04:49;;;;;;;14.02;13.10;;;;;;;;;;5108054;28;24865;-58
2021/09/14 01:07:14;;;;;;;14.05;13.05;;;;;;;;;;5124504;28;24422;-58
2021/09/14 01:09:40;;;;;;;13.10;12.20;;;;;;;;;;5125473;27;24416;-60
2021/09/14 01:12:05;;;;;;;13.30;12.30;;;;;;;;;;5120196;28;24433;-60
2021/09/14 01:14:30;;;;;;;13.60;12.70;;;;;;;;;;5116105;28;25011;-59
2021/09/14 01:16:55;;;;;;;13.18;12.27;;;;;;;;;;5126403;28;24528;-60
2021/09/14 01:19:21;;;;;;;13.30;12.43;;;;;;;;;;5119977;28;25049;-59
2021/09/14 01:21:46;;;;;;;16.73;15.60;;;;;;;;;;5108936;28;24413;-59
2021/09/14 01:24:12;;;;;;;13.20;12.30;;;;;;;;;;5120967;28;24830;-58
2021/09/14 01:26:38;;;;;;;14.00;13.10;;;;;;;;;;5113074;27;24404;-59
2021/09/14 01:29:07;;;;;;;14.03;13.03;;;;;;;;;;5117349;27;24836;-59
2021/09/14 01:31:32;;;;;;;13.70;12.80;;;;;;;;;;5121866;27;24405;-59
2021/09/14 01:33:57;;;;;;;13.88;12.98;;;;;;;;;;5129821;27;24490;-59
2021/09/14 01:36:22;;;;;;;13.43;12.48;;;;;;;;;;5126549;27;24420;-60
2021/09/14 01:38:48;;;;;;;14.02;12.98;;;;;;;;;;5120209;27;24453;-59
2021/09/14 01:41:13;;;;;;;13.30;12.43;;;;;;;;;;5115758;27;24410;-59
2021/09/14 01:43:39;;;;;;;13.97;12.97;;;;;;;;;;5123914;27;24408;-59
2021/09/14 01:46:05;;;;;;;13.60;12.60;;;;;;;;;;5126004;27;24410;-59
2021/09/14 01:48:30;;;;;;;12.88;12.07;;;;;;;;;;5112470;27;24536;-59
2021/09/14 01:50:55;;;;;;;14.13;13.23;;;;;;;;;;5129405;27;24424;-59
2021/09/14 01:53:23;;;;;;;13.67;12.77;;;;;;;;;;5130400;27;24413;-59
2021/09/14 01:55:49;;;;;;;13.90;12.90;;;;;;;;;;5114684;27;24416;-59
2021/09/14 01:58:14;;;;;;;15.85;14.65;;;;;;;;;;5125889;27;24578;-59
2021/09/14 02:00:46;;;;;;;15.40;14.30;;;;;;;;;;5125787;27;24440;-59
2021/09/14 02:08:55;;;;;;;14.55;13.55;;;;;;;;;;5109135;28;24493;-59
2021/09/14 02:41:49;;;;;;;13.85;12.95;;;;;;;;;;5076612;27;24405;-60
2021/09/14 03:00:28;;;;;;;14.25;13.20;;;;;;;;;;5121786;27;24449;-60
2021/09/14 03:02:53;;;;;;;13.60;12.63;;;;;;;;;;5122183;27;24863;-58
2021/09/14 03:05:18;;;;;;;23.30;21.60;;;;;;;;;;5117403;27;24397;-61
2021/09/14 03:07:43;;;;;;;26.90;25.00;;;;;;;;;;5125544;27;24500;-60
2021/09/14 03:10:08;;;;;;;31.37;28.87;;;;;;;;;;5117435;27;24436;-60
2021/09/14 03:12:33;;;;;;;31.47;29.17;;;;;;;;;;5121428;27;24413;-60
2021/09/14 03:14:59;;;;;;;30.33;28.10;;;;;;;;;;5118557;27;24409;-61
2021/09/14 03:17:24;;;;;;;26.83;24.83;;;;;;;;;;5119579;27;24559;-58
2021/09/14 03:19:49;;;;;;;23.33;21.63;;;;;;;;;;5118067;27;24540;-59
2021/09/14 03:22:14;;;;;;;24.77;22.97;;;;;;;;;;5124789;27;24416;-59
2021/09/14 03:24:39;;;;;;;22.60;21.00;;;;;;;;;;5121741;27;24498;-59
2021/09/14 03:27:04;;;;;;;23.45;21.80;;;;;;;;;;5127431;27;24474;-59
2021/09/14 03:29:30;;;;;;;28.57;26.37;;;;;;;;;;5125588;27;24413;-60
2021/09/14 03:31:55;;;;;;;27.77;25.67;;;;;;;;;;5110480;27;25053;-60
2021/09/14 03:34:20;;;;;;;31.30;28.90;;;;;;;;;;5125309;27;24425;-59
2021/09/14 03:36:45;;;;;;;39.93;36.93;;;;;;;;;;5126406;27;24409;-59
2021/09/14 03:39:10;;;;;;;35.90;33.00;;;;;;;;;;5122427;27;24983;-59
2021/09/14 03:41:36;;;;;;;32.97;30.48;;;;;;;;;;5124853;27;24490;-59
2021/09/14 03:44:01;;;;;;;29.10;26.90;;;;;;;;;;5120167;27;25007;-59
2021/09/14 03:46:26;;;;;;;28.20;26.10;;;;;;;;;;5125640;27;24429;-59
2021/09/14 03:48:51;;;;;;;29.73;27.53;;;;;;;;;;5124408;27;24912;-59
2021/09/14 03:51:17;;;;;;;33.63;31.13;;;;;;;;;;5126273;27;24408;-58
2021/09/14 03:53:42;;;;;;;28.87;26.67;;;;;;;;;;5117232;27;25019;-58
2021/09/14 03:56:07;;;;;;;30.08;27.77;;;;;;;;;;5126358;27;24415;-58
2021/09/14 03:58:32;;;;;;;29.30;27.07;;;;;;;;;;5120088;27;24452;-59
2021/09/14 04:00:57;;;;;;;28.45;26.35;;;;;;;;;;5116367;27;24487;-59
2021/09/14 04:03:50;;;;;;;26.13;24.13;;;;;;;;;;5107362;27;24496;-59
2021/09/14 04:08:50;;;;;;;26.08;24.17;;;;;;;;;;5124799;27;24466;-59
2021/09/14 04:11:15;;;;;;;24.70;22.90;;;;;;;;;;5114850;27;24414;-59
2021/09/14 04:13:41;;;;;;;24.48;22.67;;;;;;;;;;5111178;28;24458;-59
2021/09/14 04:16:06;;;;;;;21.93;20.33;;;;;;;;;;5116707;27;24444;-59
2021/09/14 04:18:31;;;;;;;22.43;20.73;;;;;;;;;;5127121;27;24428;-59
2021/09/14 04:20:56;;;;;;;21.45;19.95;;;;;;;;;;5123298;28;25040;-59
2021/09/14 04:23:21;;;;;;;22.80;21.10;;;;;;;;;;5121395;28;24419;-59
2021/09/14 04:25:46;;;;;;;24.00;22.20;;;;;;;;;;5125300;28;24508;-59
2021/09/14 04:28:11;;;;;;;23.80;21.90;;;;;;;;;;5124282;28;24842;-59
2021/09/14 04:30:37;;;;;;;23.50;21.70;;;;;;;;;;5116554;28;24429;-60
2021/09/14 04:33:02;;;;;;;21.00;19.40;;;;;;;;;;5116745;28;24995;-60
2021/09/14 04:35:28;;;;;;;17.70;16.40;;;;;;;;;;5119493;28;25063;-59
2021/09/14 04:37:53;;;;;;;18.27;16.97;;;;;;;;;;5116406;28;24509;-59
2021/09/14 04:40:18;;;;;;;16.42;15.23;;;;;;;;;;5111426;28;24410;-59
2021/09/14 04:42:43;;;;;;;18.23;16.88;;;;;;;;;;5109128;28;24410;-59
2021/09/14 04:45:09;;;;;;;18.73;17.33;;;;;;;;;;5109177;28;25009;-58
2021/09/14 04:47:34;;;;;;;19.13;17.73;;;;;;;;;;5122525;28;24393;-58
2021/09/14 04:49:59;;;;;;;16.77;15.57;;;;;;;;;;5113713;28;24481;-59
2021/09/14 04:52:24;;;;;;;14.70;13.70;;;;;;;;;;5109043;28;24474;-59
2021/09/14 04:54:49;;;;;;;15.52;14.48;;;;;;;;;;5124266;28;24918;-59
2021/09/14 04:57:14;;;;;;;16.00;14.70;;;;;;;;;;5122160;28;24405;-59
2021/09/14 04:59:39;;;;;;;16.67;15.48;;;;;;;;;;5116614;27;25155;-59
2021/09/14 05:02:05;;;;;;;16.08;14.98;;;;;;;;;;5112497;27;24421;-60
2021/09/14 05:04:30;;;;;;;15.00;13.90;;;;;;;;;;5126105;27;24509;-60
2021/09/14 05:06:55;;;;;;;16.40;15.20;;;;;;;;;;5112806;27;24970;-60
2021/09/14 05:09:20;;;;;;;15.40;14.30;;;;;;;;;;5126198;27;24462;-59
2021/09/14 05:11:45;;;;;;;15.83;14.73;;;;;;;;;;5121199;27;24545;-59
2021/09/14 05:14:11;;;;;;;15.23;14.23;;;;;;;;;;5114834;27;24693;-59
2021/09/14 05:16:36;;;;;;;14.45;13.45;;;;;;;;;;5124686;27;24995;-59
2021/09/14 05:19:02;;;;;;;15.67;14.57;;;;;;;;;;5104141;28;24445;-59
2021/09/14 05:21:27;;;;;;;14.90;13.80;;;;;;;;;;5120755;27;24488;-60
2021/09/14 05:23:53;;;;;;;14.97;13.87;;;;;;;;;;5112573;27;24500;-60
2021/09/14 05:26:21;;;;;;;13.90;12.90;;;;;;;;;;5129461;27;24497;-60
2021/09/14 05:28:46;;;;;;;14.45;13.45;;;;;;;;;;5129895;27;24411;-59
2021/09/14 05:31:11;;;;;;;12.82;11.93;;;;;;;;;;5129914;27;24429;-60
2021/09/14 05:33:37;;;;;;;13.20;12.30;;;;;;;;;;5129771;27;24433;-59
2021/09/14 05:36:03;;;;;;;14.27;13.07;;;;;;;;;;5129948;27;24438;-59
2021/09/14 05:38:28;;;;;;;12.50;11.60;;;;;;;;;;5128890;27;24432;-60
2021/09/14 05:40:54;;;;;;;12.00;11.20;;;;;;;;;;5129564;27;25175;-60
2021/09/14 05:43:20;;;;;;;10.65;9.95;;;;;;;;;;5130060;27;24427;-59
2021/09/14 05:45:45;;;;;;;11.52;10.82;;;;;;;;;;5129607;27;24419;-60
2021/09/14 05:48:10;;;;;;;11.67;10.80;;;;;;;;;;5129492;27;24452;-60
2021/09/14 05:50:35;;;;;;;11.40;10.60;;;;;;;;;;5117934;27;24822;-59
2021/09/14 05:53:00;;;;;;;12.65;11.65;;;;;;;;;;5125932;27;24516;-59
2021/09/14 05:55:25;;;;;;;11.23;10.43;;;;;;;;;;5125815;27;25391;-60
2021/09/14 05:57:50;;;;;;;11.00;10.20;;;;;;;;;;5115514;27;24480;-60
2021/09/14 06:00:16;;;;;;;11.33;10.53;;;;;;;;;;5125343;27;24517;-60
2021/09/14 06:02:41;;;;;;;10.87;10.17;;;;;;;;;;5107988;27;24414;-60
2021/09/14 06:05:06;;;;;;;11.67;10.77;;;;;;;;;;5111909;27;24941;-59
2021/09/14 06:07:32;;;;;;;10.60;9.90;;;;;;;;;;5123246;27;24432;-59
2021/09/14 06:09:57;;;;;;;9.47;8.87;;;;;;;;;;5113801;27;24409;-60
2021/09/14 06:12:22;;;;;;;8.50;7.90;;;;;;;;;;5124699;27;24854;-59
2021/09/14 06:14:47;;;;;;;10.88;10.18;;;;;;;;;;5124685;27;24524;-60
2021/09/14 06:17:12;;;;;;;11.20;10.40;;;;;;;;;;5123191;27;24417;-60
2021/09/14 06:19:38;;;;;;;10.37;9.67;;;;;;;;;;5125338;27;24428;-59
2021/09/14 06:22:03;;;;;;;8.80;8.30;;;;;;;;;;5125634;27;24773;-59
2021/09/14 06:24:28;;;;;;;11.10;10.30;;;;;;;;;;5111711;27;24433;-60
2021/09/14 06:26:53;;;;;;;12.37;11.47;;;;;;;;;;5117089;27;25198;-60
2021/09/14 06:29:18;;;;;;;11.10;10.30;;;;;;;;;;5114215;27;24424;-60
2021/09/14 06:31:44;;;;;;;12.00;11.20;;;;;;;;;;5120904;27;24476;-59
2021/09/14 06:34:09;;;;;;;11.50;10.70;;;;;;;;;;5112505;27;24547;-60
2021/09/14 06:36:34;;;;;;;11.60;10.80;;;;;;;;;;5117413;27;24465;-59
2021/09/14 06:38:59;;;;;;;10.90;10.20;;;;;;;;;;5125583;27;24441;-60
2021/09/14 06:41:25;;;;;;;11.02;10.23;;;;;;;;;;5125299;27;24762;-59
2021/09/14 06:43:50;;;;;;;12.88;11.98;;;;;;;;;;5116765;27;24412;-59
2021/09/14 06:46:15;;;;;;;12.48;11.60;;;;;;;;;;5115069;27;24420;-60
2021/09/14 06:48:41;;;;;;;12.07;11.17;;;;;;;;;;5112867;27;24930;-60
2021/09/14 06:51:06;;;;;;;12.63;11.73;;;;;;;;;;5118039;27;24420;-60
2021/09/14 06:53:31;;;;;;;12.60;11.60;;;;;;;;;;5110681;27;24660;-60
2021/09/14 06:55:57;;;;;;;9.70;9.00;;;;;;;;;;5122527;27;24732;-60
2021/09/14 06:58:22;;;;;;;10.93;10.23;;;;;;;;;;5126241;27;24413;-59
2021/09/14 07:00:47;;;;;;;9.50;8.90;;;;;;;;;;5119030;27;24432;-59
2021/09/14 07:03:13;;;;;;;10.30;9.53;;;;;;;;;;5125661;27;24419;-60
2021/09/14 07:05:38;;;;;;;9.18;8.57;;;;;;;;;;5127915;27;24931;-60
2021/09/14 07:08:03;;;;;;;11.80;10.90;;;;;;;;;;5126772;27;24927;-60
2021/09/14 07:10:29;;;;;;;9.43;8.83;;;;;;;;;;5120468;27;24517;-60
2021/09/14 07:12:54;;;;;;;11.60;10.70;;;;;;;;;;5111091;27;24474;-60
2021/09/14 07:15:19;;;;;;;8.87;8.27;;;;;;;;;;5125939;27;24474;-60
2021/09/14 07:17:44;;;;;;;9.10;8.50;;;;;;;;;;5127639;27;24549;-61
2021/09/14 07:20:09;;;;;;;9.63;9.02;;;;;;;;;;5127856;27;24699;-61
2021/09/14 07:22:35;;;;;;;9.03;8.43;;;;;;;;;;5123533;27;24469;-60
2021/09/14 07:25:00;;;;;;;7.30;6.80;;;;;;;;;;5126175;27;24408;-60
2021/09/14 07:27:25;;;;;;;7.20;6.80;;;;;;;;;;5127763;27;24401;-60
2021/09/14 07:29:51;;;;;;;10.15;9.35;;;;;;;;;;5126505;27;24428;-60
2021/09/14 07:32:16;;;;;;;8.80;8.20;;;;;;;;;;5126226;27;25002;-60
2021/09/14 07:34:42;;;;;;;8.33;7.73;;;;;;;;;;5127434;27;25012;-60
2021/09/14 07:37:07;;;;;;;10.60;9.70;;;;;;;;;;5127888;27;24468;-60
2021/09/14 07:39:32;;;;;;;9.48;8.77;;;;;;;;;;5127329;27;24536;-60
2021/09/14 07:41:57;;;;;;;9.60;8.90;;;;;;;;;;5126684;27;24863;-61
2021/09/14 07:44:22;;;;;;;10.03;9.33;;;;;;;;;;5127939;27;24385;-60
2021/09/14 07:46:48;;;;;;;10.07;9.38;;;;;;;;;;5127190;27;24410;-60
2021/09/14 07:49:13;;;;;;;6.90;6.40;;;;;;;;;;5127809;27;24385;-60
2021/09/14 07:51:38;;;;;;;8.03;7.43;;;;;;;;;;5127608;27;24397;-61
2021/09/14 07:54:03;;;;;;;9.07;8.48;;;;;;;;;;5126507;27;24424;-60
2021/09/14 07:56:28;;;;;;;8.20;7.70;;;;;;;;;;5108217;27;24417;-60
2021/09/14 07:58:53;;;;;;;6.82;6.43;;;;;;;;;;5127256;27;24570;-60
2021/09/14 08:01:19;;;;;;;8.07;7.57;;;;;;;;;;5125932;27;24409;-60
2021/09/14 08:03:44;;;;;;;7.05;6.65;;;;;;;;;;5126969;27;24378;-60
2021/09/14 08:06:09;;;;;;;9.00;8.40;;;;;;;;;;5127300;27;24419;-60
2021/09/14 08:08:34;;;;;;;7.30;6.80;;;;;;;;;;5127065;27;24429;-60
2021/09/14 08:10:59;;;;;;;8.83;8.23;;;;;;;;;;5126707;27;25213;-60
2021/09/14 08:13:24;;;;;;;8.03;7.53;;;;;;;;;;5127595;27;24396;-60
2021/09/14 08:15:50;;;;;;;9.50;8.80;;;;;;;;;;5126536;27;24865;-60
2021/09/14 08:18:15;;;;;;;9.00;8.40;;;;;;;;;;5127009;27;24745;-60
2021/09/14 08:20:41;;;;;;;8.70;8.20;;;;;;;;;;5126850;27;24597;-60
2021/09/14 08:23:06;;;;;;;7.30;6.80;;;;;;;;;;5126616;28;25030;-60
2021/09/14 08:25:31;;;;;;;9.00;8.35;;;;;;;;;;5126868;28;24684;-60
2021/09/14 08:27:57;;;;;;;9.03;8.27;;;;;;;;;;5126225;28;24433;-60
2021/09/14 08:30:22;;;;;;;8.00;7.50;;;;;;;;;;5127177;28;25014;-60
2021/09/14 08:32:47;;;;;;;7.60;7.10;;;;;;;;;;5126381;28;24409;-60
2021/09/14 08:35:13;;;;;;;8.17;7.57;;;;;;;;;;5129522;27;24408;-60
2021/09/14 08:37:38;;;;;;;7.10;6.60;;;;;;;;;;5130934;27;24416;-60
2021/09/14 08:40:03;;;;;;;6.30;5.80;;;;;;;;;;5130672;27;24798;-60
2021/09/14 08:42:34;;;;;;;6.70;6.20;;;;;;;;;;5130888;27;25019;-61
2021/09/14 08:45:01;;;;;;;8.23;7.63;;;;;;;;;;5130900;27;24524;-61
2021/09/14 08:47:26;;;;;;;7.65;7.15;;;;;;;;;;5130923;27;24480;-59
2021/09/14 08:49:52;;;;;;;10.47;9.67;;;;;;;;;;5130445;27;24954;-58
2021/09/14 08:52:17;;;;;;;8.43;7.82;;;;;;;;;;5130530;27;24393;-59
2021/09/14 08:54:42;;;;;;;7.83;7.13;;;;;;;;;;5130496;27;24396;-59
2021/09/14 08:57:07;;;;;;;7.80;7.30;;;;;;;;;;5130345;27;24512;-59
2021/09/14 08:59:33;;;;;;;7.57;7.07;;;;;;;;;;5129841;27;24433;-60
2021/09/14 09:02:07;;;;;;;8.18;7.57;;;;;;;;;;5130392;27;24389;-59
2021/09/14 09:04:33;;;;;;;7.30;6.80;;;;;;;;;;5130464;27;24481;-60
2021/09/14 09:06:58;;;;;;;8.10;7.60;;;;;;;;;;5129764;27;24855;-60
2021/09/14 09:09:25;;;;;;;9.53;8.83;;;;;;;;;;5130353;27;24706;-60
2021/09/14 09:11:52;;;;;;;7.70;7.10;;;;;;;;;;5130284;27;24405;-59
2021/09/14 09:14:17;;;;;;;7.93;7.43;;;;;;;;;;5130563;27;24930;-59
2021/09/14 09:16:43;;;;;;;10.43;9.63;;;;;;;;;;5130449;27;24848;-59
2021/09/14 09:19:08;;;;;;;7.70;7.20;;;;;;;;;;5130024;27;24485;-59
2021/09/14 09:21:37;;;;;;;7.15;6.65;;;;;;;;;;5129904;27;24779;-60
2021/09/14 09:24:07;;;;;;;8.40;7.70;;;;;;;;;;5129473;27;24408;-59
2021/09/14 09:26:35;;;;;;;6.97;6.47;;;;;;;;;;5130329;27;24397;-59
2021/09/14 09:29:03;;;;;;;7.97;7.47;;;;;;;;;;5129370;27;24978;-60
2021/09/14 09:31:28;;;;;;;8.77;8.18;;;;;;;;;;5129820;27;25048;-59
2021/09/14 09:34:03;;;;;;;9.73;9.03;;;;;;;;;;5129743;27;24425;-60
2021/09/14 09:36:29;;;;;;;9.60;9.00;;;;;;;;;;5129650;27;24397;-59
2021/09/14 09:38:58;;;;;;;8.55;7.95;;;;;;;;;;5129298;27;24482;-59
2021/09/14 09:41:24;;;;;;;8.40;7.80;;;;;;;;;;5129878;27;25261;-60
2021/09/14 09:43:49;;;;;;;7.20;6.70;;;;;;;;;;5129694;27;24508;-59
2021/09/14 09:46:21;;;;;;;7.13;6.63;;;;;;;;;;5128926;27;24393;-59
2021/09/14 09:48:47;;;;;;;9.18;8.50;;;;;;;;;;5129160;27;24495;-60
2021/09/14 09:51:12;;;;;;;9.25;8.65;;;;;;;;;;5129716;27;25003;-60
2021/09/14 09:53:38;;;;;;;9.40;8.70;;;;;;;;;;5129366;27;24964;-59
2021/09/14 09:56:05;;;;;;;10.10;9.40;;;;;;;;;;5129241;27;25020;-59
2021/09/14 09:58:31;;;;;;;8.70;8.10;;;;;;;;;;5129458;27;24421;-60
2021/09/14 10:00:59;;;;;;;9.20;8.50;;;;;;;;;;5129071;27;24721;-60
2021/09/14 10:03:26;;;;;;;9.40;8.70;;;;;;;;;;5129516;27;24390;-59
2021/09/14 10:05:54;;;;;;;9.53;8.83;;;;;;;;;;5129258;27;24427;-60
2021/09/14 10:08:21;;;;;;;9.20;8.50;;;;;;;;;;5128960;27;24385;-60
2021/09/14 10:10:52;;;;;;;8.82;8.13;;;;;;;;;;5128422;27;24441;-59
2021/09/14 10:13:27;;;;;;;7.93;7.35;;;;;;;;;;5129035;27;24480;-59
2021/09/14 10:15:52;;;;;;;8.60;7.95;;;;;;;;;;5129160;27;24393;-60
2021/09/14 10:18:24;;;;;;;8.00;7.50;;;;;;;;;;5128962;27;24765;-60
2021/09/14 10:20:49;;;;;;;8.30;7.70;;;;;;;;;;5128342;27;24524;-59
2021/09/14 10:23:16;;;;;;;8.43;7.83;;;;;;;;;;5128719;27;25019;-59
2021/09/14 10:25:45;;;;;;;7.07;6.57;;;;;;;;;;5129453;27;24381;-59
2021/09/14 10:28:12;;;;;;;8.70;8.10;;;;;;;;;;5128747;27;24465;-59
2021/09/14 10:30:37;;;;;;;7.30;6.80;;;;;;;;;;5128511;27;24398;-60
2021/09/14 10:33:02;;;;;;;7.17;6.63;;;;;;;;;;5128308;27;24448;-59
2021/09/14 10:35:29;;;;;;;7.40;6.90;;;;;;;;;;5128931;27;24396;-60
2021/09/14 10:38:03;;;;;;;8.68;8.00;;;;;;;;;;5128522;27;24527;-59
2021/09/14 10:40:36;;;;;;;6.70;6.30;;;;;;;;;;5128868;27;24938;-60
2021/09/14 10:43:01;;;;;;;6.15;5.75;;;;;;;;;;5127284;27;24409;-59
2021/09/14 10:45:26;;;;;;;6.50;6.10;;;;;;;;;;5128798;27;24424;-60
2021/09/14 10:47:53;;;;;;;7.50;7.00;;;;;;;;;;5128532;27;24408;-60
2021/09/14 10:50:28;;;;;;;6.32;5.93;;;;;;;;;;5128889;27;24428;-60
2021/09/14 10:52:57;;;;;;;6.70;6.30;;;;;;;;;;5127796;27;24424;-60
2021/09/14 10:55:22;;;;;;;7.10;6.70;;;;;;;;;;5128742;27;24929;-59
2021/09/14 10:57:50;;;;;;;7.22;6.80;;;;;;;;;;5127559;27;24997;-60
2021/09/14 11:00:17;;;;;;;8.30;7.70;;;;;;;;;;5128454;27;24939;-60
2021/09/14 11:02:42;;;;;;;7.68;7.10;;;;;;;;;;5127471;27;24424;-59
2021/09/14 11:05:09;;;;;;;6.83;6.43;;;;;;;;;;5128509;27;24394;-59
2021/09/14 11:07:34;;;;;;;7.47;6.97;;;;;;;;;;5128159;27;24393;-59
2021/09/14 11:10:00;;;;;;;7.20;6.70;;;;;;;;;;5127851;27;24397;-59
2021/09/14 11:12:27;;;;;;;8.00;7.40;;;;;;;;;;5127275;27;24490;-58
2021/09/14 11:14:52;;;;;;;7.68;7.07;;;;;;;;;;5127864;27;24801;-58
2021/09/14 11:17:28;;;;;;;8.02;7.53;;;;;;;;;;5128174;27;24473;-59
2021/09/14 11:19:53;;;;;;;8.02;7.43;;;;;;;;;;5127592;27;24557;-59
2021/09/14 11:22:29;;;;;;;8.45;7.85;;;;;;;;;;5127522;27;24484;-58
2021/09/14 11:24:54;;;;;;;8.40;7.80;;;;;;;;;;5126798;27;24425;-59
2021/09/14 11:27:21;;;;;;;8.23;7.70;;;;;;;;;;5127942;27;24397;-59
2021/09/14 11:29:46;;;;;;;9.02;8.32;;;;;;;;;;5127637;27;24712;-59
2021/09/14 11:32:15;;;;;;;8.10;7.40;;;;;;;;;;5127449;27;25115;-60
2021/09/14 11:34:40;;;;;;;7.93;7.40;;;;;;;;;;5127184;27;24416;-60
2021/09/14 11:37:05;;;;;;;7.67;7.07;;;;;;;;;;5127318;27;24413;-60
2021/09/14 11:39:37;;;;;;;8.32;7.82;;;;;;;;;;5127232;27;24441;-59
2021/09/14 11:42:02;;;;;;;8.70;8.00;;;;;;;;;;5127158;27;24412;-58
2021/09/14 11:44:28;;;;;;;7.80;7.30;;;;;;;;;;5127378;27;24412;-59
2021/09/14 11:46:53;;;;;;;7.10;6.60;;;;;;;;;;5127657;27;24741;-59
2021/09/14 11:49:25;;;;;;;7.90;7.30;;;;;;;;;;5127245;27;24516;-60
2021/09/14 11:51:50;;;;;;;7.00;6.50;;;;;;;;;;5127272;27;24404;-60
2021/09/14 11:54:18;;;;;;;7.93;7.43;;;;;;;;;;5127341;27;24451;-60
2021/09/14 11:56:54;;;;;;;6.65;6.25;;;;;;;;;;5126712;27;24871;-59
2021/09/14 11:59:19;;;;;;;7.70;7.20;;;;;;;;;;5127142;27;24471;-59
2021/09/14 12:01:45;;;;;;;7.80;7.30;;;;;;;;;;5126697;27;24449;-60
2021/09/14 12:04:16;;;;;;;6.75;6.25;;;;;;;;;;5127357;27;24401;-60
2021/09/14 12:06:48;;;;;;;7.70;7.10;;;;;;;;;;5126886;27;24449;-60
2021/09/14 12:09:13;;;;;;;6.30;5.90;;;;;;;;;;5114772;27;24769;-60
2021/09/14 12:11:39;;;;;;;6.70;6.30;;;;;;;;;;5117684;27;24431;-60
2021/09/14 12:14:05;;;;;;;6.90;6.50;;;;;;;;;;5120889;27;24412;-60
2021/09/14 12:16:40;;;;;;;7.43;6.93;;;;;;;;;;5117246;27;24417;-60
2021/09/14 12:19:06;;;;;;;6.90;6.47;;;;;;;;;;5110765;27;24467;-59
2021/09/14 12:21:31;;;;;;;7.05;6.55;;;;;;;;;;5115154;27;24437;-60
2021/09/14 12:23:57;;;;;;;6.70;6.30;;;;;;;;;;5113831;28;25043;-59
2021/09/14 12:26:37;;;;;;;6.75;6.35;;;;;;;;;;5117255;28;24417;-60
2021/09/14 12:29:03;;;;;;;7.63;7.03;;;;;;;;;;5126169;28;24470;-60
2021/09/14 12:31:28;;;;;;;6.30;5.90;;;;;;;;;;5115179;28;24414;-60
2021/09/14 12:33:55;;;;;;;6.43;6.03;;;;;;;;;;5122366;28;20765;-60
2021/09/14 12:36:20;;;;;;;5.80;5.40;;;;;;;;;;5123438;28;24767;-60
2021/09/14 12:38:45;;;;;;;6.30;5.90;;;;;;;;;;5122102;28;25017;-60
2021/09/14 12:41:13;;;;;;;7.22;6.72;;;;;;;;;;5124797;28;24857;-60
2021/09/14 12:43:39;;;;;;;6.20;5.80;;;;;;;;;;5107046;28;24420;-59
2021/09/14 12:46:04;;;;;;;5.70;5.40;;;;;;;;;;5107068;28;24533;-61
2021/09/14 12:48:29;;;;;;;6.30;5.90;;;;;;;;;;5109123;28;25240;-60
2021/09/14 12:50:55;;;;;;;6.28;5.88;;;;;;;;;;5108446;28;24482;-60
2021/09/14 12:53:20;;;;;;;7.10;6.60;;;;;;;;;;5124528;28;24693;-60
2021/09/14 12:55:45;;;;;;;6.70;6.30;;;;;;;;;;5125970;28;24936;-60
2021/09/14 12:58:10;;;;;;;6.40;6.00;;;;;;;;;;5107774;28;24414;-59
2021/09/14 13:00:36;;;;;;;5.40;5.10;;;;;;;;;;5124663;28;24500;-60
2021/09/14 13:03:01;;;;;;;6.90;6.30;;;;;;;;;;5120240;28;24402;-60
2021/09/14 13:05:27;;;;;;;6.50;6.10;;;;;;;;;;5121074;28;24496;-59
2021/09/14 13:07:52;;;;;;;6.82;6.43;;;;;;;;;;5125984;28;24401;-60
2021/09/14 13:10:17;;;;;;;6.00;5.60;;;;;;;;;;5119873;28;25244;-60
2021/09/14 13:12:47;;;;;;;7.10;6.60;;;;;;;;;;5115640;28;24536;-60
2021/09/14 13:17:57;;;;;;;5.90;5.50;;;;;;;;;;5122042;28;24416;-60
2021/09/14 13:20:23;;;;;;;5.85;5.43;;;;;;;;;;5121387;27;24960;-60
2021/09/14 13:22:48;;;;;;;5.47;5.07;;;;;;;;;;5111901;27;24517;-60
2021/09/14 13:25:13;;;;;;;5.80;5.40;;;;;;;;;;5107020;28;24489;-60
2021/09/14 13:27:38;;;;;;;7.10;6.50;;;;;;;;;;5119166;27;24432;-59
2021/09/14 13:30:03;;;;;;;6.60;6.10;;;;;;;;;;5119277;27;25332;-60
2021/09/14 13:32:29;;;;;;;6.90;6.30;;;;;;;;;;5118717;27;25009;-60
2021/09/14 13:34:54;;;;;;;5.23;4.83;;;;;;;;;;5129774;27;24462;-60
2021/09/14 13:37:19;;;;;;;5.47;5.10;;;;;;;;;;5129901;27;24400;-60
2021/09/14 13:39:44;;;;;;;6.77;6.30;;;;;;;;;;5111083;27;25007;-60
2021/09/14 13:42:11;;;;;;;5.05;4.75;;;;;;;;;;5129110;27;24409;-59
2021/09/14 13:47:06;;;;;;;6.68;6.07;;;;;;;;;;5129337;27;24385;-60
2021/09/14 13:49:31;;;;;;;6.40;6.00;;;;;;;;;;5129230;27;24412;-61
2021/09/14 13:51:56;;;;;;;5.93;5.53;;;;;;;;;;5129598;27;24405;-60
2021/09/14 13:54:21;;;;;;;6.20;5.80;;;;;;;;;;5129348;27;25006;-60
2021/09/14 13:56:46;;;;;;;5.10;4.80;;;;;;;;;;5129591;27;24400;-60
2021/09/14 13:59:11;;;;;;;5.32;5.03;;;;;;;;;;5129005;27;24493;-60
2021/09/14 14:01:36;;;;;;;4.77;4.47;;;;;;;;;;5128786;27;24432;-60
2021/09/14 14:04:02;;;;;;;6.30;5.90;;;;;;;;;;5128929;27;24453;-60
2021/09/14 14:06:27;;;;;;;6.20;5.80;;;;;;;;;;5129634;27;24546;-59
2021/09/14 14:08:53;;;;;;;4.80;4.50;;;;;;;;;;5128448;27;24504;-60
2021/09/14 14:11:18;;;;;;;5.50;5.20;;;;;;;;;;5123991;27;24424;-59
2021/09/14 14:13:44;;;;;;;5.20;4.90;;;;;;;;;;5116119;27;24456;-60
2021/09/14 14:16:09;;;;;;;6.20;5.80;;;;;;;;;;5119527;27;24424;-59
2021/09/14 14:18:35;;;;;;;6.20;5.80;;;;;;;;;;5115933;27;24425;-59
2021/09/14 14:21:00;;;;;;;5.43;5.13;;;;;;;;;;5121219;27;24520;-60
2021/09/14 14:23:25;;;;;;;5.30;5.00;;;;;;;;;;5128652;27;24525;-60
2021/09/14 14:25:50;;;;;;;4.53;4.23;;;;;;;;;;5124331;27;24469;-61
2021/09/14 14:28:16;;;;;;;5.20;4.80;;;;;;;;;;5121144;27;24504;-61
2021/09/14 14:30:41;;;;;;;4.70;4.40;;;;;;;;;;5124787;27;24405;-61
2021/09/14 14:33:06;;;;;;;5.40;5.00;;;;;;;;;;5111282;27;25159;-61
2021/09/14 14:35:31;;;;;;;4.80;4.50;;;;;;;;;;5112812;27;24876;-61
2021/09/14 14:37:56;;;;;;;5.37;4.97;;;;;;;;;;5110517;27;24397;-60
2021/09/14 14:40:22;;;;;;;4.60;4.30;;;;;;;;;;5127790;27;24716;-59
2021/09/14 14:42:48;;;;;;;3.83;3.63;;;;;;;;;;5126260;27;25021;-59
2021/09/14 14:45:13;;;;;;;5.00;4.70;;;;;;;;;;5126657;27;24521;-59
2021/09/14 14:47:38;;;;;;;4.53;4.23;;;;;;;;;;5128521;27;24447;-60
2021/09/14 14:50:03;;;;;;;4.80;4.50;;;;;;;;;;5111690;27;25071;-60
2021/09/14 14:52:28;;;;;;;4.90;4.60;;;;;;;;;;5118428;27;24428;-59
2021/09/14 14:54:54;;;;;;;5.67;5.27;;;;;;;;;;5119647;27;25034;-60
2021/09/14 14:57:19;;;;;;;6.23;5.73;;;;;;;;;;5116938;27;24409;-61
2021/09/14 14:59:44;;;;;;;6.33;5.93;;;;;;;;;;5107959;28;24997;-60
2021/09/14 15:02:09;;;;;;;5.60;5.20;;;;;;;;;;5122454;27;24401;-59
2021/09/14 15:04:34;;;;;;;5.15;4.75;;;;;;;;;;5127979;27;24488;-59
2021/09/14 15:06:59;;;;;;;4.97;4.67;;;;;;;;;;5128077;27;24393;-59
2021/09/14 15:09:25;;;;;;;5.20;4.90;;;;;;;;;;5128367;27;24505;-60
2021/09/14 15:11:50;;;;;;;5.28;4.97;;;;;;;;;;5127157;27;24421;-60
2021/09/14 15:14:15;;;;;;;5.23;4.90;;;;;;;;;;5127401;27;25079;-59
2021/09/14 15:16:40;;;;;;;4.90;4.60;;;;;;;;;;5128116;27;24454;-60
2021/09/14 15:19:05;;;;;;;4.80;4.50;;;;;;;;;;5127440;27;24416;-60
2021/09/14 15:21:31;;;;;;;5.27;4.97;;;;;;;;;;5127260;27;24393;-60
2021/09/14 15:23:56;;;;;;;5.40;5.10;;;;;;;;;;5127620;27;24833;-59